CheckWX is a tool to help pilots better visualize weather data.  It is not intended as a substitute for an official pre-flight weather briefing.

10:17:09 UTC

33V METAR
Walden-Jackson County Airport
Walden, Colorado, USA
Current

42 mins ago

K33V 190935Z AUTO 14005KT 10SM CLR 04/M02 A3034 RMK AO1
Observed
Aug-19 @ 09:35 UTC
Wind
  • 140° at 5 KTS
Visibility
10 SM
Flight Rules
VFR
Cloud Levels
  • Clear skies
Temperature
C / 39°F
Dewpoint
-2°C / 28°F
Humidity
65%
Altimeter
30.34" Hg
Pressure
1027.42 hPa
Previous

1 hour ago

K33V 190915Z AUTO 12007KT 10SM CLR 05/M02 A3033 RMK AO1
Observed
Aug-19 @ 09:15 UTC
Wind
  • 120° at 7 KTS
Visibility
10 SM
Flight Rules
VFR
Cloud Levels
  • Clear skies
Temperature
C / 41°F
Dewpoint
-2°C / 28°F
Humidity
61%
Altimeter
30.33" Hg
Pressure
1027.12 hPa
Previous

1 hour ago

K33V 190855Z AUTO 14007KT 10SM CLR 04/M02 A3033 RMK AO1
Observed
Aug-19 @ 08:55 UTC
Wind
  • 140° at 7 KTS
Visibility
10 SM
Flight Rules
VFR
Cloud Levels
  • Clear skies
Temperature
C / 39°F
Dewpoint
-2°C / 28°F
Humidity
65%
Altimeter
30.33" Hg
Pressure
1027.12 hPa